createdAt,value
2019-05-03T00:02:43.296Z,92.20
2019-05-03T00:06:46.743Z,92.00
2019-05-03T00:10:51.761Z,92.20
2019-05-03T00:15:15.246Z,92.50
2019-05-03T00:19:18.745Z,92.70
2019-05-03T00:23:22.799Z,92.80
2019-05-03T00:27:26.723Z,93.10
2019-05-03T00:31:31.898Z,93.20
2019-05-03T00:35:37.097Z,93.10
2019-05-03T00:39:42.198Z,93.20
2019-05-03T00:43:45.631Z,92.50
2019-05-03T00:47:49.434Z,92.70
2019-05-03T00:51:52.886Z,92.80
2019-05-03T00:55:56.650Z,92.50
2019-05-03T01:00:01.924Z,91.80
2019-05-03T01:04:05.249Z,92.20
2019-05-03T01:08:08.690Z,92.20
2019-05-03T01:12:12.672Z,92.10
2019-05-03T01:16:22.520Z,91.80
2019-05-03T01:20:25.774Z,91.40
2019-05-03T01:24:29.214Z,91.80
2019-05-03T01:28:32.648Z,92.10
2019-05-03T01:32:36.094Z,92.30
2019-05-03T01:36:39.541Z,92.40
2019-05-03T01:40:43.005Z,92.20
2019-05-03T01:44:46.433Z,92.20
2019-05-03T01:48:52.204Z,92.10
2019-05-03T01:53:03.156Z,92.20
2019-05-03T01:57:06.604Z,92.50
2019-05-03T02:01:18.397Z,92.90
2019-05-03T02:05:35.246Z,92.90
2019-05-03T02:09:39.242Z,93.20
2019-05-03T02:13:42.800Z,93.40
2019-05-03T02:17:46.393Z,93.80
2019-05-03T02:21:49.833Z,93.80
2019-05-03T02:25:58.397Z,93.60
2019-05-03T02:29:58.736Z,93.80
2019-05-03T02:34:03.564Z,94.00
2019-05-03T02:38:07.808Z,94.10
2019-05-03T02:42:11.988Z,94.10
2019-05-03T02:46:35.847Z,94.50
2019-05-03T02:50:38.090Z,94.40
2019-05-03T02:54:41.522Z,94.40
2019-05-03T02:58:46.025Z,94.50
2019-05-03T03:02:49.895Z,94.20
2019-05-03T03:06:55.602Z,94.20
2019-05-03T03:11:08.107Z,94.20
2019-05-03T03:15:12.126Z,94.40
2019-05-03T03:19:17.071Z,94.40
2019-05-03T03:23:26.119Z,94.50
2019-05-03T03:27:31.426Z,94.40
2019-05-03T03:31:58.150Z,94.10
2019-05-03T03:36:29.132Z,94.20
2019-05-03T03:40:06.526Z,94.10
2019-05-03T03:44:11.705Z,94.00
2019-05-03T03:48:18.492Z,94.00
2019-05-03T03:52:21.942Z,93.90
2019-05-03T03:56:28.459Z,94.40
2019-05-03T04:00:35.966Z,94.50
2019-05-03T04:04:38.510Z,94.50
2019-05-03T04:08:45.122Z,94.40
2019-05-03T04:12:48.485Z,94.70
2019-05-03T04:16:56.747Z,95.00
2019-05-03T04:21:00.184Z,95.10
2019-05-03T04:25:05.960Z,95.10
2019-05-03T04:29:08.962Z,95.40
2019-05-03T04:33:12.399Z,95.40
2019-05-03T04:37:16.389Z,95.20
2019-05-03T04:41:20.109Z,95.10
2019-05-03T04:45:25.554Z,95.10
2019-05-03T04:49:28.744Z,95.30
2019-05-03T04:53:35.737Z,95.00
2019-05-03T04:57:44.902Z,94.90
2019-05-03T05:01:46.186Z,94.90
2019-05-03T05:05:48.937Z,94.50
2019-05-03T05:09:52.383Z,94.60
2019-05-03T05:13:56.144Z,94.50
2019-05-03T05:18:07.235Z,94.80
2019-05-03T05:22:15.606Z,94.30
2019-05-03T05:26:21.091Z,94.10
2019-05-03T05:30:25.183Z,93.60
2019-05-03T05:34:28.827Z,93.90
2019-05-03T05:38:32.274Z,93.10
2019-05-03T05:42:35.711Z,92.80
2019-05-03T05:46:41.109Z,92.10
2019-05-03T05:50:46.158Z,92.70
2019-05-03T05:54:51.233Z,91.70
2019-05-03T05:59:14.685Z,92.20
2019-05-03T06:03:17.959Z,91.10
2019-05-03T06:07:29.041Z,90.80
2019-05-03T06:11:34.729Z,91.50
2019-05-03T06:15:45.088Z,91.10
2019-05-03T06:19:50.161Z,91.30
2019-05-03T06:24:10.829Z,91.10
2019-05-03T06:28:20.649Z,91.20
2019-05-03T06:32:25.687Z,90.70
2019-05-03T06:36:29.438Z,90.90
2019-05-03T06:40:35.270Z,90.40
2019-05-03T06:44:38.933Z,86.60
2019-05-03T06:48:44.318Z,88.10
2019-05-03T06:52:47.523Z,89.00
2019-05-03T06:56:50.948Z,86.60
2019-05-03T07:01:14.907Z,87.20
2019-05-03T07:05:32.006Z,86.00
2019-05-03T07:09:44.456Z,84.70
2019-05-03T07:13:48.162Z,82.00
2019-05-03T07:17:51.938Z,82.90
2019-05-03T07:21:55.371Z,82.00
2019-05-03T07:25:58.805Z,80.70
2019-05-03T07:30:04.733Z,82.60
2019-05-03T07:34:08.230Z,80.70
2019-05-03T07:38:11.669Z,79.70
2019-05-03T07:42:15.730Z,80.10
2019-05-03T07:46:19.569Z,77.40
2019-05-03T07:50:25.569Z,78.80
2019-05-03T07:54:27.662Z,81.50
2019-05-03T07:58:32.370Z,77.60
2019-05-03T08:02:36.033Z,81.20
2019-05-03T08:06:39.628Z,75.60
2019-05-03T08:10:45.047Z,72.50
2019-05-03T08:14:47.618Z,75.20
2019-05-03T08:18:51.130Z,73.40
2019-05-03T08:22:54.843Z,73.50
2019-05-03T08:26:58.550Z,75.70
2019-05-03T08:31:04.754Z,77.60
2019-05-03T08:35:16.218Z,74.90
2019-05-03T08:39:20.145Z,74.90
2019-05-03T08:43:25.530Z,69.90
2019-05-03T08:47:29.070Z,72.20
2019-05-03T08:51:32.518Z,75.20
2019-05-03T08:55:35.966Z,73.50
2019-05-03T08:59:39.735Z,74.80
2019-05-03T09:03:43.175Z,73.70
2019-05-03T09:07:46.605Z,75.90
2019-05-03T09:11:50.042Z,74.90
2019-05-03T09:15:55.307Z,75.60
2019-05-03T09:19:59.215Z,74.70
2019-05-03T09:24:04.534Z,78.30
2019-05-03T09:28:08.064Z,77.10
2019-05-03T09:32:11.525Z,78.00
2019-05-03T09:36:15.305Z,80.60
2019-05-03T09:40:18.734Z,79.20
2019-05-03T09:44:24.245Z,80.40
2019-05-03T09:48:27.329Z,77.00
2019-05-03T09:52:30.909Z,73.40
2019-05-03T09:56:56.051Z,75.40
2019-05-03T10:00:57.674Z,75.80
2019-05-03T10:05:01.113Z,75.90
2019-05-03T10:09:05.868Z,75.20
2019-05-03T10:13:14.161Z,77.30
2019-05-03T10:17:22.452Z,77.80
2019-05-03T10:21:27.894Z,76.30
2019-05-03T10:25:31.341Z,75.50
2019-05-03T10:29:34.779Z,72.90
2019-05-03T10:33:49.379Z,69.50
2019-05-03T10:37:54.780Z,72.70
2019-05-03T10:41:58.346Z,78.20
2019-05-03T10:46:01.781Z,82.20
2019-05-03T10:50:06.958Z,84.70
2019-05-03T10:54:10.513Z,87.90
2019-05-03T10:58:20.207Z,87.30
2019-05-03T11:02:40.504Z,88.30
2019-05-03T11:06:45.810Z,84.50
2019-05-03T11:10:49.089Z,80.90
2019-05-03T11:14:52.528Z,80.50
2019-05-03T11:18:55.966Z,83.80
2019-05-03T11:22:59.743Z,82.10
2019-05-03T11:27:05.102Z,84.00
2019-05-03T11:31:26.791Z,86.90
2019-05-03T11:35:31.893Z,90.40
2019-05-03T11:39:35.589Z,88.10
2019-05-03T11:43:39.035Z,90.80
2019-05-03T11:47:42.501Z,84.30
2019-05-03T11:51:46.322Z,90.40
2019-05-03T11:55:50.182Z,91.80
2019-05-03T11:59:54.792Z,91.00
2019-05-03T12:03:58.509Z,92.10
2019-05-03T12:08:01.961Z,91.30
2019-05-03T12:12:07.318Z,92.20
2019-05-03T12:16:17.762Z,90.60
2019-05-03T12:20:17.955Z,89.20
2019-05-03T12:24:22.261Z,88.50
2019-05-03T12:28:26.073Z,85.40
2019-05-03T12:32:29.502Z,83.70
2019-05-03T12:36:36.743Z,82.80
2019-05-03T12:40:38.456Z,77.10
2019-05-03T12:44:42.138Z,78.00
2019-05-03T12:48:45.595Z,74.70
2019-05-03T12:52:50.772Z,75.70
2019-05-03T12:56:56.049Z,74.30
2019-05-03T13:01:04.946Z,70.70
2019-05-03T13:05:08.559Z,72.40
2019-05-03T13:09:13.110Z,72.50
2019-05-03T13:13:16.547Z,74.40
2019-05-03T13:17:21.916Z,72.70
2019-05-03T13:21:25.385Z,69.00
2019-05-03T13:25:29.241Z,65.20
2019-05-03T13:29:34.708Z,68.10
2019-05-03T13:33:37.857Z,64.20
2019-05-03T13:37:41.344Z,69.00
2019-05-03T13:41:45.562Z,69.00
2019-05-03T13:45:49.556Z,72.20
2019-05-03T13:49:55.146Z,69.90
2019-05-03T13:53:58.502Z,69.70
2019-05-03T13:58:01.925Z,70.50
2019-05-03T14:02:15.140Z,71.40
2019-05-03T14:06:10.911Z,72.70
2019-05-03T14:10:14.873Z,73.90
2019-05-03T14:14:18.322Z,73.60
2019-05-03T14:18:21.767Z,73.00
2019-05-03T14:22:26.841Z,73.60
2019-05-03T14:26:30.579Z,71.80
2019-05-03T14:30:34.641Z,72.10
2019-05-03T14:34:38.614Z,73.00
2019-05-03T14:38:42.058Z,73.70
2019-05-03T14:42:45.750Z,74.80
2019-05-03T14:46:49.178Z,74.30
2019-05-03T14:50:54.954Z,77.50
2019-05-03T14:54:59.746Z,77.10
2019-05-03T15:03:35.086Z,75.80
2019-05-03T15:07:38.938Z,72.40
2019-05-03T15:11:42.625Z,71.60
2019-05-03T15:15:46.075Z,72.40
2019-05-03T15:19:49.574Z,70.30
2019-05-03T15:23:54.748Z,70.80
2019-05-03T15:27:58.170Z,69.90
2019-05-03T15:32:01.601Z,68.50
2019-05-03T15:36:05.049Z,70.80
2019-05-03T15:40:09.175Z,67.80
2019-05-03T15:44:17.483Z,69.00
2019-05-03T15:48:24.435Z,67.80
2019-05-03T15:52:28.097Z,68.70
2019-05-03T15:56:31.529Z,71.70
2019-05-03T16:00:35.316Z,69.10
2019-05-03T16:04:38.746Z,67.60
2019-05-03T16:08:44.490Z,68.20
2019-05-03T16:12:47.601Z,67.60
2019-05-03T16:16:51.046Z,69.20
2019-05-03T16:20:54.785Z,70.50
2019-05-03T16:24:58.419Z,69.30
2019-05-03T16:29:06.510Z,71.10
2019-05-03T16:33:22.458Z,71.10
2019-05-03T16:37:15.413Z,70.10
2019-05-03T16:41:19.201Z,70.60
2019-05-03T16:45:22.914Z,73.00
2019-05-03T16:49:26.357Z,77.40
2019-05-03T16:53:29.789Z,79.50
2019-05-03T16:57:35.261Z,79.80
2019-05-03T17:01:38.795Z,80.80
2019-05-03T17:09:51.269Z,80.10
2019-05-03T17:13:55.393Z,79.90
2019-05-03T17:18:00.137Z,81.00
2019-05-03T17:22:05.471Z,81.00
2019-05-03T17:26:09.105Z,81.50
2019-05-03T17:30:12.613Z,80.00
2019-05-03T17:34:16.386Z,78.90
2019-05-03T17:38:19.826Z,79.50
2019-05-03T17:42:41.419Z,80.10
2019-05-03T17:46:45.430Z,80.70
2019-05-03T17:50:48.957Z,82.90
2019-05-03T17:54:57.029Z,82.50
2019-05-03T17:59:04.477Z,82.70
2019-05-03T18:03:09.004Z,81.50
2019-05-03T18:07:30.555Z,80.60
2019-05-03T18:11:36.694Z,80.00
2019-05-03T18:15:40.550Z,79.60
2019-05-03T18:19:44.837Z,80.40
2019-05-03T18:23:49.399Z,80.20
2019-05-03T18:27:55.034Z,80.50
2019-05-03T18:31:58.577Z,81.40
2019-05-03T18:36:02.074Z,81.30
2019-05-03T18:40:09.480Z,81.80
2019-05-03T18:44:24.353Z,81.90
2019-05-03T18:48:27.802Z,83.30
2019-05-03T18:52:31.234Z,84.00
2019-05-03T18:56:37.769Z,83.00
2019-05-03T19:00:41.209Z,83.30
2019-05-03T19:04:46.293Z,82.40
2019-05-03T19:09:05.176Z,83.20
2019-05-03T19:13:14.831Z,83.00
2019-05-03T19:17:25.568Z,83.50
2019-05-03T19:21:29.266Z,82.90
2019-05-03T19:25:44.012Z,83.30
2019-05-03T19:29:37.180Z,84.40
2019-05-03T19:33:40.860Z,85.20
2019-05-03T19:37:46.355Z,86.00
2019-05-03T19:42:08.853Z,88.30
2019-05-03T19:46:12.408Z,90.10
2019-05-03T19:50:15.905Z,88.10
2019-05-03T19:54:21.045Z,87.60
2019-05-03T19:58:24.870Z,87.10
2019-05-03T20:02:48.479Z,84.20
2019-05-03T20:06:53.553Z,84.70
2019-05-03T20:11:14.930Z,82.40
2019-05-03T20:15:20.010Z,80.80
2019-05-03T20:19:25.590Z,80.10
2019-05-03T20:23:28.967Z,81.10
2019-05-03T20:27:32.481Z,80.90
2019-05-03T20:31:35.970Z,82.20
2019-05-03T20:35:39.738Z,83.70
2019-05-03T20:39:43.181Z,82.90
2019-05-03T20:43:48.513Z,84.00
2019-05-03T20:48:01.881Z,84.10
2019-05-03T20:52:05.720Z,84.20
2019-05-03T20:56:10.055Z,85.00
2019-05-03T21:00:14.999Z,87.00
2019-05-03T21:04:18.480Z,87.90
2019-05-03T21:08:21.948Z,85.80
2019-05-03T21:12:25.884Z,83.60
2019-05-03T21:16:34.501Z,83.00
2019-05-03T21:20:39.942Z,83.10
2019-05-03T21:24:47.935Z,83.80
2019-05-03T21:28:51.674Z,84.40
2019-05-03T21:37:17.227Z,84.30
2019-05-03T21:41:17.853Z,85.00
2019-05-03T21:45:24.684Z,85.20
2019-05-03T21:49:35.968Z,86.00
2019-05-03T21:53:39.419Z,87.50
2019-05-03T21:57:44.886Z,87.60
2019-05-03T22:01:48.993Z,89.00
2019-05-03T22:10:56.577Z,89.80
2019-05-03T22:15:05.074Z,90.20
2019-05-03T22:19:09.034Z,90.10
2019-05-03T22:23:15.007Z,90.40
2019-05-03T22:27:19.850Z,90.30
2019-05-03T22:31:24.182Z,91.10
2019-05-03T22:35:28.713Z,91.30
2019-05-03T22:39:32.156Z,91.10
2019-05-03T22:43:35.607Z,91.40
2019-05-03T22:47:39.129Z,91.70
2019-05-03T22:51:42.593Z,91.70
2019-05-03T22:55:46.347Z,91.20
2019-05-03T22:59:49.788Z,91.10
2019-05-03T23:03:55.000Z,93.60
2019-05-03T23:07:58.729Z,95.10
2019-05-03T23:12:02.165Z,95.00
2019-05-03T23:16:07.135Z,94.90
2019-05-03T23:20:12.457Z,94.00
2019-05-03T23:24:15.907Z,94.50
2019-05-03T23:28:19.358Z,94.80
2019-05-03T23:32:24.454Z,95.20
2019-05-03T23:36:33.590Z,95.50
2019-05-03T23:40:34.759Z,95.90
2019-05-03T23:44:38.689Z,96.20
2019-05-03T23:48:42.129Z,96.70
2019-05-03T23:52:46.417Z,96.70
2019-05-03T23:56:49.862Z,96.70
